Time;durP1;ratioP1;P1;durP2;ratioP2;P2;SDS_P1;SDS_P2;PMS_P1;PMS_P2;Temp;Humidity;BMP_temperature;BMP_pressure;BME280_temperature;BME280_humidity;BME280_pressure;Samples;Min_cycle;Max_cycle;Signal;HPM_P1;HPM_P2
2021/08/06 00:00:37;;;;;;;19.23;3.65;;;42.70;34.20;;;;;;5045449;28;20078;-66
2021/08/06 00:03:03;;;;;;;18.92;2.92;;;42.60;34.10;;;;;;5045486;28;20447;-66
2021/08/06 00:05:30;;;;;;;17.50;3.50;;;42.70;33.50;;;;;;5041209;28;20113;-66
2021/08/06 00:07:56;;;;;;;21.25;4.03;;;42.70;35.20;;;;;;5044571;28;20078;-66
2021/08/06 00:10:23;;;;;;;25.20;4.32;;;42.70;35.30;;;;;;5045746;28;20139;-64
2021/08/06 00:12:49;;;;;;;22.00;4.25;;;42.60;35.50;;;;;;5041341;28;20510;-66
2021/08/06 00:15:16;;;;;;;23.63;4.60;;;42.50;36.70;;;;;;5045481;28;20073;-64
2021/08/06 00:17:43;;;;;;;23.10;4.57;;;42.50;37.60;;;;;;5042468;28;20151;-64
2021/08/06 00:20:10;;;;;;;20.17;5.30;;;42.40;37.60;;;;;;5046576;28;20548;-63
2021/08/06 00:22:36;;;;;;;18.45;4.22;;;42.50;37.80;;;;;;5042017;28;20074;-63
2021/08/06 00:25:03;;;;;;;27.55;6.47;;;42.20;37.00;;;;;;5042038;28;20569;-63
2021/08/06 00:27:31;;;;;;;30.67;5.53;;;42.30;37.50;;;;;;5043233;28;20090;-63
2021/08/06 00:29:58;;;;;;;21.58;4.88;;;42.30;38.00;;;;;;5045468;28;20086;-64
2021/08/06 00:32:25;;;;;;;24.27;4.85;;;42.30;38.00;;;;;;5046427;28;20080;-64
2021/08/06 00:34:52;;;;;;;34.10;6.35;;;42.30;38.20;;;;;;5048161;28;20103;-63
2021/08/06 00:37:18;;;;;;;22.65;4.50;;;42.30;37.80;;;;;;5043558;28;20531;-64
2021/08/06 00:39:45;;;;;;;17.83;4.30;;;42.20;39.00;;;;;;5045856;28;20502;-64
2021/08/06 00:42:11;;;;;;;25.67;4.50;;;42.00;38.90;;;;;;5041364;28;20078;-64
2021/08/06 00:44:38;;;;;;;28.52;4.10;;;41.80;39.70;;;;;;5047248;28;20073;-63
2021/08/06 00:47:05;;;;;;;24.45;4.70;;;41.80;39.70;;;;;;5049711;28;20077;-65
2021/08/06 00:49:31;;;;;;;20.25;4.60;;;41.80;40.20;;;;;;5047502;28;20160;-64
2021/08/06 00:51:58;;;;;;;32.90;4.82;;;41.90;40.30;;;;;;5042894;28;20535;-64
2021/08/06 00:54:25;;;;;;;18.95;4.45;;;41.80;40.40;;;;;;5044811;28;20117;-65
2021/08/06 00:56:52;;;;;;;22.65;4.53;;;41.60;41.20;;;;;;5046094;28;20098;-65
2021/08/06 00:59:18;;;;;;;23.98;4.50;;;41.50;41.10;;;;;;5046814;28;20100;-65
2021/08/06 01:01:52;;;;;;;32.08;5.38;;;41.30;45.30;;;;;;5048619;28;20049;-65
2021/08/06 01:04:41;;;;;;;24.55;4.53;;;41.40;40.90;;;;;;5044732;28;20208;-65
2021/08/06 01:07:17;;;;;;;18.23;4.35;;;41.40;41.30;;;;;;5048464;28;20442;-65
2021/08/06 01:09:59;;;;;;;30.38;5.65;;;41.30;41.60;;;;;;5042960;28;20083;-63
2021/08/06 01:13:00;;;;;;;19.55;4.40;;;41.20;41.70;;;;;;5047171;28;20096;-65
2021/08/06 01:15:27;;;;;;;23.20;4.13;;;41.20;41.60;;;;;;5045038;28;20088;-66
2021/08/06 01:17:59;;;;;;;20.20;4.30;;;41.20;41.60;;;;;;5044987;28;20081;-65
2021/08/06 01:20:34;;;;;;;24.00;5.43;;;41.10;41.60;;;;;;5043372;28;20110;-64
2021/08/06 01:23:15;;;;;;;19.57;3.93;;;40.90;41.30;;;;;;5046568;28;20072;-65
2021/08/06 01:26:03;;;;;;;23.23;4.57;;;40.90;41.50;;;;;;5044972;28;20085;-64
2021/08/06 01:28:35;;;;;;;18.63;4.22;;;40.90;41.50;;;;;;5042175;28;20462;-65
2021/08/06 01:31:03;;;;;;;24.42;4.70;;;40.90;41.00;;;;;;5048565;28;20075;-64
2021/08/06 01:33:30;;;;;;;23.58;5.03;;;41.20;56.40;;;;;;5041939;28;20108;-65
2021/08/06 01:35:57;;;;;;;20.83;4.20;;;40.80;40.00;;;;;;5044469;28;20085;-65
2021/08/06 01:38:23;;;;;;;18.05;4.38;;;40.90;39.90;;;;;;5043375;28;20090;-66
2021/08/06 01:41:25;;;;;;;17.60;4.13;;;40.70;38.90;;;;;;5040489;28;20104;-67
2021/08/06 01:44:02;;;;;;;27.70;4.72;;;40.70;38.60;;;;;;5040468;28;20235;-66
2021/08/06 01:46:44;;;;;;;18.85;4.15;;;40.70;37.90;;;;;;5041338;28;20077;-66
2021/08/06 01:49:16;;;;;;;18.52;3.53;;;40.10;57.30;;;;;;5043767;28;20078;-66
2021/08/06 01:51:44;;;;;;;17.52;3.97;;;40.40;47.10;;;;;;5042937;28;20485;-65
2021/08/06 01:54:15;;;;;;;25.67;4.00;;;40.30;47.80;;;;;;5045954;28;20025;-64
2021/08/06 01:56:44;;;;;;;23.70;3.75;;;40.40;38.90;;;;;;5042917;28;20167;-65
2021/08/06 01:59:11;;;;;;;25.38;4.40;;;39.90;60.20;;;;;;5041926;28;20189;-65
2021/08/06 02:01:39;;;;;;;18.45;4.32;;;40.50;39.90;;;;;;5046936;28;20084;-65
2021/08/06 02:04:06;;;;;;;19.80;4.78;;;40.60;66.90;;;;;;5042158;28;20163;-65
2021/08/06 02:06:34;;;;;;;22.80;4.78;;;39.90;59.00;;;;;;5041040;28;20550;-65
2021/08/06 02:09:01;;;;;;;20.58;4.70;;;39.90;63.00;;;;;;5040219;28;20061;-65
2021/08/06 02:11:28;;;;;;;41.22;5.70;;;39.30;63.40;;;;;;5041852;28;20158;-64
2021/08/06 02:13:54;;;;;;;21.48;4.47;;;39.50;44.90;;;;;;5042338;28;20073;-64
2021/08/06 02:16:24;;;;;;;23.00;4.30;;;39.30;45.50;;;;;;5043543;28;20124;-66
2021/08/06 02:18:53;;;;;;;18.88;4.63;;;39.10;62.70;;;;;;5043869;28;20093;-64
2021/08/06 02:21:30;;;;;;;25.90;5.03;;;38.90;67.20;;;;;;5038852;28;20104;-66
2021/08/06 02:24:01;;;;;;;128.25;9.57;;;38.70;70.30;;;;;;5043953;28;21372;-65
2021/08/06 02:26:30;;;;;;;157.23;9.90;;;38.50;75.90;;;;;;5040934;28;20060;-65
2021/08/06 02:28:57;;;;;;;31.33;5.43;;;38.60;48.60;;;;;;5044401;28;20045;-63
2021/08/06 02:31:26;;;;;;;26.60;6.15;;;38.40;48.90;;;;;;5040876;28;20163;-65
2021/08/06 02:33:53;;;;;;;31.33;4.85;;;38.40;49.80;;;;;;5047102;28;20052;-66
2021/08/06 02:36:21;;;;;;;31.00;5.35;;;38.70;86.60;;;;;;5043841;28;20033;-64
2021/08/06 02:38:49;;;;;;;21.20;4.78;;;38.00;80.90;;;;;;5045094;28;20543;-64
2021/08/06 02:41:15;;;;;;;46.85;5.78;;;38.00;75.80;;;;;;5044109;28;20072;-65
2021/08/06 02:43:43;;;;;;;79.75;7.88;;;38.20;77.30;;;;;;5041410;28;20052;-65
2021/08/06 02:46:10;;;;;;;48.90;7.57;;;38.00;51.20;;;;;;5040121;28;20622;-64
2021/08/06 02:48:36;;;;;;;25.27;5.65;;;38.00;76.50;;;;;;5041201;28;20052;-65
2021/08/06 02:51:03;;;;;;;45.70;6.03;;;38.00;78.90;;;;;;5041882;28;20057;-64
2021/08/06 02:53:29;;;;;;;31.65;8.35;;;37.70;74.70;;;;;;5045455;28;20082;-65
2021/08/06 02:55:56;;;;;;;27.38;5.85;;;37.50;75.80;;;;;;5043869;28;20071;-65
2021/08/06 02:58:22;;;;;;;32.42;6.00;;;37.20;80.20;;;;;;5041733;28;20173;-66
2021/08/06 03:00:49;;;;;;;34.78;5.57;;;37.10;79.60;;;;;;5041184;28;20056;-64
2021/08/06 03:03:15;;;;;;;27.05;5.25;;;37.40;80.30;;;;;;5044343;28;20089;-64
2021/08/06 03:05:42;;;;;;;24.60;6.35;;;37.30;80.50;;;;;;5042057;28;20112;-64
2021/08/06 03:08:09;;;;;;;28.10;5.68;;;37.30;54.10;;;;;;5042579;28;20079;-64
2021/08/06 03:10:35;;;;;;;26.67;5.90;;;37.30;54.00;;;;;;5044537;28;20101;-65
2021/08/06 03:13:02;;;;;;;70.40;7.70;;;37.00;78.00;;;;;;5044588;28;20127;-65
2021/08/06 03:15:28;;;;;;;30.13;6.13;;;36.90;54.60;;;;;;5041139;28;20450;-65
2021/08/06 03:17:55;;;;;;;24.52;5.32;;;36.60;78.50;;;;;;5039205;28;20424;-64
2021/08/06 03:20:23;;;;;;;30.65;6.07;;;36.60;78.10;;;;;;5040212;28;20104;-66
2021/08/06 03:22:51;;;;;;;31.20;6.47;;;36.60;82.40;;;;;;5048212;28;20461;-63
2021/08/06 03:25:18;;;;;;;23.75;5.97;;;36.60;55.50;;;;;;5041971;28;20136;-64
2021/08/06 03:27:45;;;;;;;30.58;6.65;;;36.50;76.90;;;;;;5039396;28;20541;-64
2021/08/06 03:30:14;;;;;;;29.67;5.45;;;36.50;77.80;;;;;;5040567;28;20056;-64
2021/08/06 03:32:40;;;;;;;32.45;6.22;;;36.50;56.10;;;;;;5043273;28;20566;-64
2021/08/06 03:35:08;;;;;;;27.83;5.72;;;36.20;77.20;;;;;;5044580;28;20072;-65
2021/08/06 03:37:35;;;;;;;23.13;5.30;;;35.90;78.70;;;;;;5041428;28;20534;-65
2021/08/06 03:40:02;;;;;;;26.00;5.57;;;36.30;56.80;;;;;;5040505;28;20506;-65
2021/08/06 03:42:28;;;;;;;27.77;6.63;;;36.30;57.00;;;;;;5043517;28;20073;-64
2021/08/06 03:44:55;;;;;;;31.00;6.50;;;36.00;83.90;;;;;;5043273;28;20093;-63
2021/08/06 03:47:21;;;;;;;31.75;6.38;;;36.20;57.40;;;;;;5045527;28;20164;-64
2021/08/06 03:49:47;;;;;;;34.60;6.70;;;36.20;57.90;;;;;;5047149;28;20085;-65
2021/08/06 03:52:14;;;;;;;42.28;6.57;;;36.10;58.10;;;;;;5041876;28;20407;-65
2021/08/06 03:54:41;;;;;;;22.98;6.10;;;36.00;58.50;;;;;;5041850;28;20085;-67
2021/08/06 03:57:07;;;;;;;36.55;6.55;;;35.90;58.80;;;;;;5049703;28;20123;-67
2021/08/06 03:59:34;;;;;;;28.98;6.18;;;36.00;58.90;;;;;;5042884;28;20447;-65
2021/08/06 04:02:00;;;;;;;33.13;6.80;;;36.00;59.50;;;;;;5046123;28;20081;-66
2021/08/06 04:04:27;;;;;;;36.40;6.28;;;35.90;59.30;;;;;;5046277;28;20110;-67
2021/08/06 04:06:53;;;;;;;33.75;6.50;;;35.80;59.70;;;;;;5047447;28;20088;-68
2021/08/06 04:09:20;;;;;;;30.35;6.18;;;35.70;59.80;;;;;;5041640;28;20093;-67
2021/08/06 04:11:46;;;;;;;32.33;8.38;;;35.70;59.90;;;;;;5044265;28;20088;-68
2021/08/06 04:14:13;;;;;;;38.58;7.05;;;35.60;60.10;;;;;;5050533;28;20120;-67
2021/08/06 04:16:39;;;;;;;27.52;6.00;;;35.70;60.10;;;;;;5045214;28;20069;-66
2021/08/06 04:19:06;;;;;;;31.67;6.63;;;35.50;60.40;;;;;;5047524;28;20093;-67
2021/08/06 04:21:32;;;;;;;27.58;5.88;;;35.50;60.60;;;;;;5046671;28;20211;-67
2021/08/06 04:23:59;;;;;;;32.35;6.60;;;35.50;60.60;;;;;;5045743;28;20077;-67
2021/08/06 04:26:25;;;;;;;36.45;7.20;;;35.60;60.50;;;;;;5047020;28;20479;-67
2021/08/06 04:28:55;;;;;;;36.35;6.85;;;35.50;60.60;;;;;;5048179;28;20264;-68
2021/08/06 04:31:21;;;;;;;22.83;5.63;;;35.50;61.30;;;;;;5051409;28;20074;-68
2021/08/06 04:33:48;;;;;;;35.28;9.40;;;;;;;;;;5048459;28;20518;-68
2021/08/06 04:36:15;;;;;;;35.28;6.65;;;35.10;61.00;;;;;;5041681;28;20161;-68
2021/08/06 04:38:42;;;;;;;27.30;5.78;;;35.20;61.60;;;;;;5050577;28;20094;-68
2021/08/06 04:41:10;;;;;;;28.50;6.05;;;35.30;61.70;;;;;;5040968;28;20074;-68
2021/08/06 04:43:37;;;;;;;26.58;6.15;;;35.20;61.50;;;;;;5048973;28;20078;-68
2021/08/06 04:46:03;;;;;;;24.55;5.60;;;35.20;62.10;;;;;;5040966;28;20073;-68
2021/08/06 04:48:30;;;;;;;27.48;5.65;;;35.10;61.40;;;;;;5044384;28;20070;-67
2021/08/06 04:50:56;;;;;;;33.50;6.18;;;35.20;61.40;;;;;;5047417;28;20535;-67
2021/08/06 04:53:24;;;;;;;23.20;6.15;;;35.10;60.90;;;;;;5048304;28;20078;-71
2021/08/06 04:55:50;;;;;;;32.88;6.03;;;35.20;61.30;;;;;;5041850;28;20074;-70
2021/08/06 04:58:17;;;;;;;31.90;5.97;;;35.30;60.50;;;;;;5043799;28;20100;-70
2021/08/06 05:00:43;;;;;;;31.15;6.00;;;35.50;60.10;;;;;;5043353;28;20074;-69
2021/08/06 05:03:10;;;;;;;27.00;6.22;;;35.60;59.50;;;;;;5040076;28;20089;-69
2021/08/06 05:05:36;;;;;;;32.42;6.50;;;35.40;59.90;;;;;;5048207;28;20571;-70
2021/08/06 05:08:03;;;;;;;34.03;6.70;;;35.40;59.90;;;;;;5045789;28;20101;-69
2021/08/06 05:10:30;;;;;;;25.48;6.30;;;35.40;59.80;;;;;;5046828;28;20081;-68
2021/08/06 05:12:57;;;;;;;25.33;6.20;;;35.50;59.70;;;;;;5046890;28;20094;-70
2021/08/06 05:15:23;;;;;;;25.65;5.97;;;35.50;59.40;;;;;;5050492;28;20073;-70
2021/08/06 05:17:50;;;;;;;26.67;6.18;;;35.50;60.00;;;;;;5052426;28;20107;-68
2021/08/06 05:20:17;;;;;;;29.50;6.45;;;35.40;59.60;;;;;;5043788;28;20109;-69
2021/08/06 05:22:43;;;;;;;28.55;5.88;;;35.50;59.60;;;;;;5050531;28;20204;-70
2021/08/06 05:25:10;;;;;;;22.83;5.78;;;35.50;59.40;;;;;;5043225;28;20074;-70
2021/08/06 05:27:37;;;;;;;28.95;5.05;;;35.40;59.30;;;;;;5041662;28;20076;-70
2021/08/06 05:30:03;;;;;;;16.45;4.45;;;35.40;59.20;;;;;;5043525;28;20077;-70
2021/08/06 05:32:30;;;;;;;24.40;5.65;;;35.40;59.10;;;;;;5045041;28;20701;-70
2021/08/06 05:34:56;;;;;;;27.58;5.32;;;35.40;58.80;;;;;;5042565;28;20080;-70
2021/08/06 05:37:23;;;;;;;33.72;6.50;;;35.40;58.80;;;;;;5046998;28;20069;-69
2021/08/06 05:40:18;;;;;;;28.05;5.90;;;35.30;58.90;;;;;;5045278;28;20108;-72
2021/08/06 05:42:44;;;;;;;26.13;6.70;;;35.40;59.40;;;;;;5047388;28;20593;-71
2021/08/06 05:45:11;;;;;;;23.23;5.45;;;35.20;59.70;;;;;;5043367;28;20485;-71
2021/08/06 05:47:46;;;;;;;29.15;5.93;;;35.10;60.20;;;;;;5045320;28;20074;-72
2021/08/06 05:50:14;;;;;;;33.42;6.00;;;35.10;60.50;;;;;;5043252;28;20100;-71
2021/08/06 05:52:40;;;;;;;24.17;5.75;;;35.10;60.90;;;;;;5041929;28;20070;-70
2021/08/06 05:55:07;;;;;;;24.23;6.05;;;35.00;61.20;;;;;;5041812;28;20073;-71
2021/08/06 05:57:34;;;;;;;28.88;6.15;;;35.00;61.20;;;;;;5043560;28;20077;-70
2021/08/06 06:00:00;;;;;;;20.05;5.55;;;35.00;61.20;;;;;;5044803;28;20121;-71
2021/08/06 06:02:27;;;;;;;23.95;5.32;;;35.00;61.80;;;;;;5043726;28;20070;-70
2021/08/06 06:04:53;;;;;;;29.88;5.78;;;34.90;61.50;;;;;;5039756;28;20118;-70
2021/08/06 06:07:20;;;;;;;23.40;5.13;;;34.70;63.20;;;;;;5041050;28;20144;-71
2021/08/06 06:09:47;;;;;;;20.88;5.47;;;34.80;62.70;;;;;;5043480;28;20094;-72
2021/08/06 06:12:13;;;;;;;22.70;5.35;;;33.30;62.40;;;;;;5041987;28;20584;-70
2021/08/06 06:14:40;;;;;;;24.40;5.68;;;34.60;64.10;;;;;;5041926;28;20161;-72
2021/08/06 06:17:06;;;;;;;33.13;5.68;;;34.60;64.40;;;;;;5042105;28;20558;-71
2021/08/06 06:19:33;;;;;;;27.50;5.03;;;34.50;64.80;;;;;;5041702;28;20628;-71
2021/08/06 06:21:59;;;;;;;21.17;5.10;;;34.60;65.20;;;;;;5041773;28;20074;-71
2021/08/06 06:24:26;;;;;;;31.38;5.53;;;34.50;65.50;;;;;;5044085;28;20070;-71
2021/08/06 06:26:52;;;;;;;18.55;4.93;;;34.40;65.90;;;;;;5043525;28;20083;-73
2021/08/06 06:29:19;;;;;;;30.17;5.47;;;34.30;66.00;;;;;;5043655;28;20108;-70
2021/08/06 06:31:45;;;;;;;23.73;5.63;;;34.30;65.80;;;;;;5040949;28;20100;-71
2021/08/06 06:34:12;;;;;;;29.92;5.70;;;34.30;65.70;;;;;;5043911;28;20112;-72
2021/08/06 06:36:39;;;;;;;20.50;5.35;;;34.30;65.70;;;;;;5040483;28;20519;-71
2021/08/06 06:39:05;;;;;;;24.33;5.78;;;34.30;65.70;;;;;;5040623;28;20159;-70
2021/08/06 06:41:33;;;;;;;31.20;5.45;;;34.20;65.60;;;;;;5040915;28;20099;-70
2021/08/06 06:43:59;;;;;;;31.58;6.30;;;34.20;65.60;;;;;;5043866;28;20074;-70
2021/08/06 06:46:26;;;;;;;27.27;5.13;;;34.20;66.00;;;;;;5044171;28;20074;-70
2021/08/06 06:48:52;;;;;;;28.67;4.82;;;34.10;66.00;;;;;;5042059;28;20077;-70
2021/08/06 06:51:19;;;;;;;25.15;5.53;;;34.10;66.10;;;;;;5042587;28;20070;-71
2021/08/06 06:53:51;;;;;;;25.95;5.28;;;34.10;66.70;;;;;;5043457;28;20092;-70
2021/08/06 06:56:18;;;;;;;27.98;5.63;;;33.80;67.50;;;;;;5041305;28;20157;-70
2021/08/06 06:58:45;;;;;;;23.30;5.93;;;34.30;84.50;;;;;;5041173;28;20117;-71
2021/08/06 07:01:11;;;;;;;21.02;5.10;;;33.70;91.80;;;;;;5045339;28;20069;-69
2021/08/06 07:03:37;;;;;;;22.70;4.88;;;33.80;68.10;;;;;;5042471;28;20074;-71
2021/08/06 07:06:04;;;;;;;25.05;5.05;;;33.60;86.50;;;;;;5041149;28;20160;-71
2021/08/06 07:08:31;;;;;;;28.80;5.30;;;33.70;68.70;;;;;;5042719;28;20683;-70
2021/08/06 07:10:58;;;;;;;27.95;5.43;;;33.70;69.20;;;;;;5045118;28;20418;-72
2021/08/06 07:13:24;;;;;;;24.95;5.22;;;33.70;69.50;;;;;;5041726;28;20078;-72
2021/08/06 07:15:51;;;;;;;25.20;5.35;;;33.50;83.20;;;;;;5040461;28;20123;-69
2021/08/06 07:18:17;;;;;;;19.77;5.28;;;33.70;84.60;;;;;;5042892;28;20096;-72
2021/08/06 07:20:44;;;;;;;30.67;6.13;;;33.50;71.20;;;;;;5043672;28;20523;-71
2021/08/06 07:23:10;;;;;;;22.55;5.72;;;33.50;71.50;;;;;;5041220;28;20062;-69
2021/08/06 07:25:37;;;;;;;22.48;5.32;;;33.60;86.10;;;;;;5031708;28;20074;-72
2021/08/06 07:28:04;;;;;;;27.55;6.10;;;33.50;72.60;;;;;;5039844;28;20078;-72
2021/08/06 07:30:30;;;;;;;27.75;6.25;;;33.50;73.30;;;;;;5041970;28;20119;-70
2021/08/06 07:32:57;;;;;;;26.20;6.47;;;33.40;74.30;;;;;;5045610;28;20105;-71
2021/08/06 07:35:26;;;;;;;28.92;6.07;;;33.40;74.80;;;;;;5045295;28;20073;-73
2021/08/06 07:37:53;;;;;;;31.30;6.25;;;33.20;75.80;;;;;;5048672;28;20096;-70
2021/08/06 07:40:20;;;;;;;25.73;6.93;;;33.20;76.50;;;;;;5045543;28;20105;-71
2021/08/06 07:42:47;;;;;;;25.25;5.57;;;33.20;77.50;;;;;;5044259;28;20533;-73
2021/08/06 07:45:14;;;;;;;21.92;6.03;;;33.10;78.20;;;;;;5046595;28;20414;-71
2021/08/06 07:47:43;;;;;;;33.25;6.13;;;33.00;79.20;;;;;;5043795;28;20562;-70
2021/08/06 07:50:10;;;;;;;32.83;6.30;;;33.00;79.80;;;;;;5043893;28;20082;-71
2021/08/06 07:52:36;;;;;;;22.30;5.60;;;32.90;80.20;;;;;;5047467;28;20088;-70
2021/08/06 07:55:05;;;;;;;27.90;6.00;;;33.00;80.20;;;;;;5045812;28;20066;-70
2021/08/06 07:57:32;;;;;;;37.53;7.55;;;33.00;80.00;;;;;;5049145;28;20077;-69
2021/08/06 07:59:58;;;;;;;30.02;6.18;;;32.90;94.40;;;;;;5040893;28;20097;-71
2021/08/06 08:02:26;;;;;;;30.63;6.07;;;33.00;80.30;;;;;;5048190;28;20074;-69
2021/08/06 08:04:52;;;;;;;32.47;5.85;;;33.00;80.30;;;;;;5046327;28;20113;-69
2021/08/06 08:07:19;;;;;;;33.53;5.72;;;33.00;80.70;;;;;;5045408;28;20066;-70
2021/08/06 08:09:46;;;;;;;31.77;6.35;;;;;;;;;;5046124;28;20086;-69
2021/08/06 08:12:13;;;;;;;34.30;6.80;;;33.00;81.20;;;;;;5048946;28;20073;-69
2021/08/06 08:14:40;;;;;;;28.77;5.15;;;33.10;99.10;;;;;;5044191;28;20165;-69
2021/08/06 08:17:07;;;;;;;27.27;5.90;;;32.90;98.50;;;;;;5049192;28;20100;-69
2021/08/06 08:19:33;;;;;;;28.75;6.63;;;32.80;98.30;;;;;;5046659;28;20097;-69
2021/08/06 08:22:00;;;;;;;28.20;6.20;;;32.70;98.70;;;;;;5047519;28;20435;-70
2021/08/06 08:24:26;;;;;;;31.05;6.50;;;32.50;99.90;;;;;;5044846;28;20149;-70
2021/08/06 08:26:53;;;;;;;28.02;6.43;;;32.60;88.20;;;;;;5043379;28;20081;-70
2021/08/06 08:29:20;;;;;;;30.77;6.80;;;32.60;89.80;;;;;;5044325;28;20446;-70
2021/08/06 08:31:46;;;;;;;29.67;6.93;;;32.50;90.40;;;;;;5044525;28;20135;-69
2021/08/06 08:34:13;;;;;;;30.73;6.47;;;32.50;91.00;;;;;;5042071;28;20113;-69
2021/08/06 08:36:39;;;;;;;33.00;7.35;;;32.40;91.80;;;;;;5047878;28;20077;-70
2021/08/06 08:39:06;;;;;;;30.40;6.35;;;32.40;92.50;;;;;;5045601;28;20102;-69
2021/08/06 08:41:33;;;;;;;26.50;6.28;;;32.40;92.90;;;;;;5047051;28;20161;-70
2021/08/06 08:44:00;;;;;;;32.28;6.88;;;32.40;93.20;;;;;;5045299;28;20077;-70
2021/08/06 08:46:29;;;;;;;30.58;6.78;;;32.40;93.60;;;;;;5047148;28;20152;-70
2021/08/06 08:48:59;;;;;;;31.85;6.35;;;32.20;99.90;;;;;;5045172;28;20543;-70
2021/08/06 08:51:26;;;;;;;32.15;6.53;;;32.20;95.00;;;;;;5041876;28;20072;-70
2021/08/06 08:53:54;;;;;;;32.03;6.65;;;32.30;95.00;;;;;;5045007;28;20077;-69
2021/08/06 08:56:23;;;;;;;27.20;6.57;;;32.30;95.00;;;;;;5044677;28;20071;-70
2021/08/06 08:58:50;;;;;;;43.17;7.20;;;32.20;95.90;;;;;;5032673;28;20171;-69
2021/08/06 09:01:16;;;;;;;33.45;7.00;;;32.00;99.90;;;;;;5047178;28;20098;-70
2021/08/06 09:03:46;;;;;;;31.85;6.63;;;32.00;97.60;;;;;;5043552;28;20123;-70
2021/08/06 09:06:15;;;;;;;29.00;7.22;;;32.10;97.80;;;;;;5048448;28;20117;-70
2021/08/06 09:08:42;;;;;;;30.60;6.60;;;32.00;98.30;;;;;;5044484;28;20085;-70
2021/08/06 09:11:30;;;;;;;27.67;6.97;;;32.00;99.90;;;;;;5038762;28;20074;-71
2021/08/06 09:14:17;;;;;;;39.15;7.90;;;31.90;99.90;;;;;;5041772;28;20074;-69
2021/08/06 09:17:00;;;;;;;33.60;6.93;;;31.80;99.90;;;;;;5050132;28;20073;-71
2021/08/06 09:19:32;;;;;;;34.83;7.32;;;31.50;99.90;;;;;;5041306;28;20097;-70
2021/08/06 09:22:13;;;;;;;38.47;7.38;;;31.90;99.90;;;;;;5042293;28;20078;-71
2021/08/06 09:25:03;;;;;;;32.65;6.50;;;31.80;99.90;;;;;;5044734;28;20550;-70
2021/08/06 09:27:32;;;;;;;27.73;6.70;;;31.80;99.90;;;;;;5033028;28;20123;-70
2021/08/06 09:30:00;;;;;;;34.63;7.38;;;31.80;99.90;;;;;;5042621;28;20078;-70
2021/08/06 09:32:28;;;;;;;32.65;7.72;;;31.80;99.90;;;;;;5047412;28;20073;-72
2021/08/06 09:34:54;;;;;;;35.40;7.63;;;31.70;99.90;;;;;;5050945;28;20094;-69
2021/08/06 09:37:24;;;;;;;29.88;6.55;;;31.60;99.90;;;;;;5050940;28;20070;-70
2021/08/06 09:39:55;;;;;;;32.72;7.32;;;31.60;99.90;;;;;;5046347;28;20100;-70
2021/08/06 09:42:35;;;;;;;29.27;6.78;;;31.20;99.90;;;;;;5048047;28;20070;-70
2021/08/06 09:45:05;;;;;;;42.38;8.48;;;31.50;99.90;;;;;;5044285;28;20072;-69
2021/08/06 09:47:34;;;;;;;34.65;8.27;;;31.50;99.90;;;;;;5042099;28;20396;-70
2021/08/06 09:50:03;;;;;;;34.90;7.57;;;31.40;99.90;;;;;;5040611;28;20062;-70
2021/08/06 09:52:35;;;;;;;37.28;6.95;;;31.40;99.90;;;;;;5043938;28;20454;-70
2021/08/06 09:55:04;;;;;;;29.52;7.00;;;31.40;99.90;;;;;;5042079;28;20431;-70
2021/08/06 09:57:31;;;;;;;34.72;8.10;;;31.40;99.90;;;;;;5042577;28;20136;-70
2021/08/06 10:00:00;;;;;;;30.67;6.38;;;31.40;99.90;;;;;;5042358;28;20093;-71
2021/08/06 10:02:31;;;;;;;30.17;7.22;;;31.40;99.90;;;;;;5044039;28;20539;-70
2021/08/06 10:04:59;;;;;;;28.83;6.75;;;31.50;99.90;;;;;;5039382;28;20208;-70
2021/08/06 10:07:27;;;;;;;31.60;7.15;;;31.40;99.90;;;;;;5044168;28;20089;-70
2021/08/06 10:09:54;;;;;;;32.75;6.88;;;31.30;99.90;;;;;;5042203;28;20077;-70
2021/08/06 10:12:22;;;;;;;31.23;6.53;;;31.30;99.90;;;;;;5044509;28;20444;-70
2021/08/06 10:14:48;;;;;;;30.25;7.07;;;31.20;99.90;;;;;;5043939;28;20066;-70
2021/08/06 10:17:15;;;;;;;34.88;7.53;;;31.10;99.90;;;;;;5042367;28;20085;-70
2021/08/06 10:19:41;;;;;;;29.95;6.57;;;30.90;99.90;;;;;;5039923;28;20104;-70
2021/08/06 10:22:09;;;;;;;34.20;6.75;;;31.00;99.90;;;;;;5041768;28;20080;-69
2021/08/06 10:24:38;;;;;;;37.20;8.07;;;31.10;99.90;;;;;;5041389;28;20159;-69
2021/08/06 10:27:05;;;;;;;30.27;7.13;;;31.10;99.90;;;;;;5044165;28;20148;-70
2021/08/06 10:29:32;;;;;;;33.83;7.55;;;31.40;99.90;;;;;;5041428;28;20116;-70
2021/08/06 10:32:16;;;;;;;34.20;7.75;;;31.00;99.90;;;;;;5046732;28;20084;-70
2021/08/06 10:35:00;;;;;;;36.75;7.68;;;30.80;99.90;;;;;;5042828;28;20074;-68
2021/08/06 10:38:02;;;;;;;30.02;7.22;;;31.10;99.90;;;;;;5044475;28;20081;-69
2021/08/06 10:40:35;;;;;;;32.78;7.22;;;30.70;99.90;;;;;;5044154;28;20172;-70
2021/08/06 10:43:11;;;;;;;36.28;7.57;;;31.40;99.90;;;;;;5044405;28;20073;-70
2021/08/06 10:45:51;;;;;;;30.50;7.22;;;30.70;99.90;;;;;;5042621;28;21685;-70
2021/08/06 10:48:46;;;;;;;32.78;6.90;;;31.30;99.90;;;;;;5035766;28;20077;-70
2021/08/06 10:51:12;;;;;;;34.42;7.25;;;30.70;99.90;;;;;;5037461;28;20558;-69
2021/08/06 10:53:40;;;;;;;32.03;7.05;;;30.60;99.90;;;;;;5040906;28;20071;-69
2021/08/06 10:56:30;;;;;;;28.35;7.25;;;30.90;99.90;;;;;;5043191;28;20438;-69
2021/08/06 10:58:56;;;;;;;32.67;6.63;;;30.80;99.90;;;;;;5045200;28;20108;-69
2021/08/06 11:01:32;;;;;;;32.10;6.90;;;30.30;99.90;;;;;;5043278;28;20064;-70
2021/08/06 11:04:03;;;;;;;30.25;6.65;;;30.70;99.90;;;;;;5042325;28;20219;-70
2021/08/06 11:06:36;;;;;;;34.20;7.13;;;30.60;99.90;;;;;;5042266;28;20079;-69
2021/08/06 11:09:11;;;;;;;33.95;7.35;;;30.70;99.90;;;;;;5044872;28;20075;-70
2021/08/06 11:11:51;;;;;;;32.35;7.22;;;30.80;99.90;;;;;;5045909;28;20135;-70
2021/08/06 11:14:38;;;;;;;35.95;7.90;;;30.00;99.90;;;;;;5047269;28;20123;-70
2021/08/06 11:17:20;;;;;;;36.92;7.57;;;30.50;99.90;;;;;;5046895;28;20081;-69
2021/08/06 11:19:57;;;;;;;28.23;7.03;;;30.60;99.90;;;;;;5041527;28;20112;-69
2021/08/06 11:22:28;;;;;;;;;;;30.60;99.90;;;;;;5042295;28;20061;-70
2021/08/06 11:25:00;;;;;;;25.85;6.70;;;30.50;99.90;;;;;;5046444;28;20056;-69
2021/08/06 11:27:47;;;;;;;40.47;7.35;;;30.70;99.90;;;;;;5047977;28;20070;-70
2021/08/06 11:30:25;;;;;;;28.50;6.35;;;30.40;99.90;;;;;;5043053;28;20073;-70
2021/08/06 11:33:00;;;;;;;29.65;6.75;;;30.10;99.90;;;;;;5040945;28;20129;-70
2021/08/06 11:35:30;;;;;;;29.48;6.82;;;30.50;99.90;;;;;;5043863;28;20115;-70
2021/08/06 11:38:04;;;;;;;33.60;6.78;;;30.50;99.90;;;;;;5046104;28;20127;-69
2021/08/06 11:40:41;;;;;;;26.77;6.65;;;30.50;99.90;;;;;;5044578;28;20129;-70
2021/08/06 11:43:14;;;;;;;36.95;8.05;;;30.60;99.90;;;;;;5044951;28;20077;-68
2021/08/06 11:45:42;;;;;;;32.30;6.95;;;30.30;99.90;;;;;;5042099;28;20073;-70
2021/08/06 11:48:10;;;;;;;33.00;7.90;;;30.50;99.90;;;;;;5045394;28;20155;-69
2021/08/06 11:50:36;;;;;;;38.33;7.88;;;30.50;99.90;;;;;;5046462;28;20534;-69
2021/08/06 11:53:09;;;;;;;26.05;6.97;;;30.50;99.90;;;;;;5044789;28;20151;-69
2021/08/06 11:55:36;;;;;;;25.25;6.53;;;30.50;99.90;;;;;;5045365;28;20168;-71
2021/08/06 11:58:03;;;;;;;30.23;6.78;;;30.00;99.90;;;;;;5047586;28;20073;-71
2021/08/06 12:00:34;;;;;;;36.05;7.55;;;30.50;99.90;;;;;;5042708;28;20172;-70
2021/08/06 12:03:15;;;;;;;32.10;7.20;;;30.70;99.90;;;;;;5043309;28;20066;-69
2021/08/06 12:05:46;;;;;;;27.63;7.00;;;30.50;99.90;;;;;;5043377;28;20135;-68
2021/08/06 12:08:24;;;;;;;31.38;6.68;;;30.50;99.90;;;;;;5048140;28;20558;-70
2021/08/06 12:10:53;;;;;;;33.90;6.88;;;30.50;99.90;;;;;;5048882;28;20077;-70
2021/08/06 12:13:24;;;;;;;27.05;6.40;;;30.50;99.90;;;;;;5048920;28;20078;-70
2021/08/06 12:16:09;;;;;;;28.77;6.53;;;30.50;99.90;;;;;;5045887;28;20588;-70
2021/08/06 12:18:47;;;;;;;33.97;7.85;;;30.50;99.90;;;;;;5044365;28;20113;-70
2021/08/06 12:21:22;;;;;;;34.17;6.60;;;30.50;99.90;;;;;;5043101;28;20290;-69
2021/08/06 12:23:54;;;;;;;30.65;7.03;;;30.50;99.90;;;;;;5045845;28;20069;-70
2021/08/06 12:26:51;;;;;;;32.72;6.90;;;30.70;99.90;;;;;;5043721;28;20086;-70
2021/08/06 12:29:19;;;;;;;35.92;7.40;;;30.50;99.90;;;;;;5031439;28;20547;-70
2021/08/06 12:32:04;;;;;;;33.53;6.55;;;30.40;99.90;;;;;;5043092;28;20535;-70
2021/08/06 12:34:36;;;;;;;28.02;7.25;;;30.20;99.90;;;;;;5042715;28;20077;-70
2021/08/06 12:37:07;;;;;;;26.52;7.00;;;30.30;99.90;;;;;;5046338;28;20073;-70
2021/08/06 12:39:47;;;;;;;34.45;7.13;;;30.30;99.90;;;;;;5041797;28;20101;-70
2021/08/06 12:42:15;;;;;;;31.50;6.63;;;30.40;99.90;;;;;;5042685;28;20555;-69
2021/08/06 12:45:08;;;;;;;30.23;6.60;;;30.30;99.90;;;;;;5042202;28;20066;-70
2021/08/06 12:47:52;;;;;;;39.53;6.72;;;30.20;99.90;;;;;;5040463;28;20176;-71
2021/08/06 12:50:32;;;;;;;27.92;6.35;;;30.70;99.90;;;;;;5045278;28;20167;-70